sensor_id;sensor_type;location;lat;lon;timestamp;P1;durP1;ratioP1;P2;durP2;ratioP2
21107;SDS011;10712;52.944;9.098;2023-01-25T00:02:07;19.25;;;14.80;;
21107;SDS011;10712;52.944;9.098;2023-01-25T00:04:32;21.30;;;15.40;;
21107;SDS011;10712;52.944;9.098;2023-01-25T00:06:58;18.42;;;14.35;;
21107;SDS011;10712;52.944;9.098;2023-01-25T00:09:24;22.80;;;17.05;;
21107;SDS011;10712;52.944;9.098;2023-01-25T00:11:50;18.73;;;14.80;;
21107;SDS011;10712;52.944;9.098;2023-01-25T00:14:17;20.40;;;15.82;;
21107;SDS011;10712;52.944;9.098;2023-01-25T00:16:43;20.40;;;15.90;;
21107;SDS011;10712;52.944;9.098;2023-01-25T00:19:09;19.02;;;15.32;;
21107;SDS011;10712;52.944;9.098;2023-01-25T00:21:36;19.35;;;14.60;;
21107;SDS011;10712;52.944;9.098;2023-01-25T00:24:02;18.85;;;14.07;;
21107;SDS011;10712;52.944;9.098;2023-01-25T00:26:29;17.80;;;15.38;;
21107;SDS011;10712;52.944;9.098;2023-01-25T00:28:59;21.30;;;14.13;;
21107;SDS011;10712;52.944;9.098;2023-01-25T00:36:57;19.25;;;14.50;;
21107;SDS011;10712;52.944;9.098;2023-01-25T00:39:29;17.73;;;14.20;;
21107;SDS011;10712;52.944;9.098;2023-01-25T00:41:55;18.25;;;13.73;;
21107;SDS011;10712;52.944;9.098;2023-01-25T00:44:20;15.70;;;13.35;;
21107;SDS011;10712;52.944;9.098;2023-01-25T00:46:46;18.92;;;14.02;;
21107;SDS011;10712;52.944;9.098;2023-01-25T00:49:18;20.98;;;15.02;;
21107;SDS011;10712;52.944;9.098;2023-01-25T00:51:49;19.02;;;15.27;;
21107;SDS011;10712;52.944;9.098;2023-01-25T00:54:17;19.20;;;15.25;;
21107;SDS011;10712;52.944;9.098;2023-01-25T00:56:44;16.25;;;13.30;;
21107;SDS011;10712;52.944;9.098;2023-01-25T00:59:11;19.50;;;15.43;;
21107;SDS011;10712;52.944;9.098;2023-01-25T01:01:41;23.27;;;16.52;;
21107;SDS011;10712;52.944;9.098;2023-01-25T01:04:08;20.35;;;15.40;;
21107;SDS011;10712;52.944;9.098;2023-01-25T01:06:35;20.27;;;15.03;;
21107;SDS011;10712;52.944;9.098;2023-01-25T01:09:03;18.10;;;14.07;;
21107;SDS011;10712;52.944;9.098;2023-01-25T01:11:32;18.17;;;14.02;;
21107;SDS011;10712;52.944;9.098;2023-01-25T01:13:58;19.02;;;13.98;;
21107;SDS011;10712;52.944;9.098;2023-01-25T01:16:24;19.05;;;15.05;;
21107;SDS011;10712;52.944;9.098;2023-01-25T01:18:51;23.80;;;16.92;;
21107;SDS011;10712;52.944;9.098;2023-01-25T01:21:16;22.85;;;15.50;;
21107;SDS011;10712;52.944;9.098;2023-01-25T01:23:42;22.13;;;16.10;;
21107;SDS011;10712;52.944;9.098;2023-01-25T01:26:10;22.05;;;16.75;;
21107;SDS011;10712;52.944;9.098;2023-01-25T01:28:39;22.23;;;16.55;;
21107;SDS011;10712;52.944;9.098;2023-01-25T01:31:07;20.85;;;15.45;;
21107;SDS011;10712;52.944;9.098;2023-01-25T01:33:52;22.05;;;16.08;;
21107;SDS011;10712;52.944;9.098;2023-01-25T01:36:21;19.00;;;14.52;;
21107;SDS011;10712;52.944;9.098;2023-01-25T01:38:50;20.55;;;15.85;;
21107;SDS011;10712;52.944;9.098;2023-01-25T01:41:17;22.58;;;16.90;;
21107;SDS011;10712;52.944;9.098;2023-01-25T01:43:44;24.15;;;18.58;;
21107;SDS011;10712;52.944;9.098;2023-01-25T01:46:14;22.80;;;15.55;;
21107;SDS011;10712;52.944;9.098;2023-01-25T01:49:15;20.85;;;15.38;;
21107;SDS011;10712;52.944;9.098;2023-01-25T01:52:02;21.70;;;15.73;;
21107;SDS011;10712;52.944;9.098;2023-01-25T01:54:42;23.05;;;17.13;;
21107;SDS011;10712;52.944;9.098;2023-01-25T01:57:39;21.15;;;15.65;;
21107;SDS011;10712;52.944;9.098;2023-01-25T02:00:22;26.52;;;17.65;;
21107;SDS011;10712;52.944;9.098;2023-01-25T02:02:54;22.38;;;16.85;;
21107;SDS011;10712;52.944;9.098;2023-01-25T02:05:27;26.88;;;17.70;;
21107;SDS011;10712;52.944;9.098;2023-01-25T02:08:15;27.00;;;18.42;;
21107;SDS011;10712;52.944;9.098;2023-01-25T02:10:42;27.50;;;18.90;;
21107;SDS011;10712;52.944;9.098;2023-01-25T02:13:10;27.42;;;19.13;;
21107;SDS011;10712;52.944;9.098;2023-01-25T02:15:37;28.48;;;19.95;;
21107;SDS011;10712;52.944;9.098;2023-01-25T02:18:10;27.63;;;19.35;;
21107;SDS011;10712;52.944;9.098;2023-01-25T02:20:38;28.13;;;19.02;;
21107;SDS011;10712;52.944;9.098;2023-01-25T02:25:45;21.33;;;16.88;;
21107;SDS011;10712;52.944;9.098;2023-01-25T02:30:44;30.45;;;21.65;;
21107;SDS011;10712;52.944;9.098;2023-01-25T02:33:11;27.90;;;18.75;;
21107;SDS011;10712;52.944;9.098;2023-01-25T02:38:39;35.47;;;23.88;;
21107;SDS011;10712;52.944;9.098;2023-01-25T02:41:19;32.30;;;21.10;;
21107;SDS011;10712;52.944;9.098;2023-01-25T02:43:52;36.38;;;24.52;;
21107;SDS011;10712;52.944;9.098;2023-01-25T02:46:22;36.40;;;24.73;;
21107;SDS011;10712;52.944;9.098;2023-01-25T02:48:53;32.50;;;22.00;;
21107;SDS011;10712;52.944;9.098;2023-01-25T02:51:24;36.83;;;24.45;;
21107;SDS011;10712;52.944;9.098;2023-01-25T02:53:53;30.40;;;21.42;;
21107;SDS011;10712;52.944;9.098;2023-01-25T02:56:20;30.58;;;21.73;;
21107;SDS011;10712;52.944;9.098;2023-01-25T02:58:46;31.48;;;20.77;;
21107;SDS011;10712;52.944;9.098;2023-01-25T03:01:14;36.88;;;23.67;;
21107;SDS011;10712;52.944;9.098;2023-01-25T03:03:41;34.70;;;23.05;;
21107;SDS011;10712;52.944;9.098;2023-01-25T03:06:07;31.95;;;22.88;;
21107;SDS011;10712;52.944;9.098;2023-01-25T03:08:34;34.42;;;22.13;;
21107;SDS011;10712;52.944;9.098;2023-01-25T03:11:01;36.17;;;22.23;;
21107;SDS011;10712;52.944;9.098;2023-01-25T03:13:29;38.15;;;23.83;;
21107;SDS011;10712;52.944;9.098;2023-01-25T03:16:07;35.22;;;23.75;;
21107;SDS011;10712;52.944;9.098;2023-01-25T03:18:38;32.20;;;21.35;;
21107;SDS011;10712;52.944;9.098;2023-01-25T03:23:43;33.90;;;22.63;;
21107;SDS011;10712;52.944;9.098;2023-01-25T03:26:15;31.50;;;20.67;;
21107;SDS011;10712;52.944;9.098;2023-01-25T03:29:05;31.73;;;21.48;;
21107;SDS011;10712;52.944;9.098;2023-01-25T03:31:33;28.17;;;19.27;;
21107;SDS011;10712;52.944;9.098;2023-01-25T03:33:59;33.00;;;22.50;;
21107;SDS011;10712;52.944;9.098;2023-01-25T03:36:30;29.20;;;19.50;;
21107;SDS011;10712;52.944;9.098;2023-01-25T03:38:56;29.20;;;20.02;;
21107;SDS011;10712;52.944;9.098;2023-01-25T03:41:22;30.13;;;20.67;;
21107;SDS011;10712;52.944;9.098;2023-01-25T03:43:47;35.17;;;23.27;;
21107;SDS011;10712;52.944;9.098;2023-01-25T03:46:16;34.05;;;24.17;;
21107;SDS011;10712;52.944;9.098;2023-01-25T03:48:41;33.75;;;22.00;;
21107;SDS011;10712;52.944;9.098;2023-01-25T03:51:07;35.08;;;22.63;;
21107;SDS011;10712;52.944;9.098;2023-01-25T03:53:34;33.28;;;22.38;;
21107;SDS011;10712;52.944;9.098;2023-01-25T03:56:09;35.22;;;23.30;;
21107;SDS011;10712;52.944;9.098;2023-01-25T03:58:45;31.33;;;21.25;;
21107;SDS011;10712;52.944;9.098;2023-01-25T04:01:12;31.52;;;22.35;;
21107;SDS011;10712;52.944;9.098;2023-01-25T04:03:38;36.50;;;24.98;;
21107;SDS011;10712;52.944;9.098;2023-01-25T04:06:04;33.53;;;23.70;;
21107;SDS011;10712;52.944;9.098;2023-01-25T04:08:32;34.00;;;22.58;;
21107;SDS011;10712;52.944;9.098;2023-01-25T04:11:02;32.78;;;22.23;;
21107;SDS011;10712;52.944;9.098;2023-01-25T04:13:31;31.88;;;22.00;;
21107;SDS011;10712;52.944;9.098;2023-01-25T04:16:00;34.92;;;22.85;;
21107;SDS011;10712;52.944;9.098;2023-01-25T04:18:46;28.33;;;21.00;;
21107;SDS011;10712;52.944;9.098;2023-01-25T04:21:12;31.98;;;22.42;;
21107;SDS011;10712;52.944;9.098;2023-01-25T04:23:38;35.05;;;24.95;;
21107;SDS011;10712;52.944;9.098;2023-01-25T04:26:05;29.73;;;21.23;;
21107;SDS011;10712;52.944;9.098;2023-01-25T04:28:33;32.90;;;22.17;;
21107;SDS011;10712;52.944;9.098;2023-01-25T04:31:00;35.15;;;23.58;;
21107;SDS011;10712;52.944;9.098;2023-01-25T04:33:33;37.65;;;25.20;;
21107;SDS011;10712;52.944;9.098;2023-01-25T04:35:59;34.70;;;23.27;;
21107;SDS011;10712;52.944;9.098;2023-01-25T04:38:25;36.40;;;23.88;;
21107;SDS011;10712;52.944;9.098;2023-01-25T04:40:51;34.25;;;23.58;;
21107;SDS011;10712;52.944;9.098;2023-01-25T04:43:17;33.28;;;22.65;;
21107;SDS011;10712;52.944;9.098;2023-01-25T04:45:45;34.60;;;23.63;;
21107;SDS011;10712;52.944;9.098;2023-01-25T04:48:19;31.83;;;21.67;;
21107;SDS011;10712;52.944;9.098;2023-01-25T04:50:51;31.77;;;21.20;;
21107;SDS011;10712;52.944;9.098;2023-01-25T04:53:20;24.25;;;18.67;;
21107;SDS011;10712;52.944;9.098;2023-01-25T04:55:46;31.48;;;20.77;;
21107;SDS011;10712;52.944;9.098;2023-01-25T04:58:13;30.15;;;21.33;;
21107;SDS011;10712;52.944;9.098;2023-01-25T05:00:41;30.15;;;19.35;;
21107;SDS011;10712;52.944;9.098;2023-01-25T05:03:09;30.17;;;21.10;;
21107;SDS011;10712;52.944;9.098;2023-01-25T05:05:35;29.05;;;20.08;;
21107;SDS011;10712;52.944;9.098;2023-01-25T05:08:06;33.05;;;21.80;;
21107;SDS011;10712;52.944;9.098;2023-01-25T05:10:33;30.25;;;21.15;;
21107;SDS011;10712;52.944;9.098;2023-01-25T05:13:17;31.35;;;22.17;;
21107;SDS011;10712;52.944;9.098;2023-01-25T05:15:44;30.55;;;22.00;;
21107;SDS011;10712;52.944;9.098;2023-01-25T05:18:11;29.25;;;20.98;;
21107;SDS011;10712;52.944;9.098;2023-01-25T05:20:37;31.27;;;22.02;;
21107;SDS011;10712;52.944;9.098;2023-01-25T05:23:04;31.90;;;20.60;;
21107;SDS011;10712;52.944;9.098;2023-01-25T05:25:30;31.70;;;21.73;;
21107;SDS011;10712;52.944;9.098;2023-01-25T05:28:21;32.55;;;21.65;;
21107;SDS011;10712;52.944;9.098;2023-01-25T05:31:13;32.05;;;20.48;;
21107;SDS011;10712;52.944;9.098;2023-01-25T05:33:40;32.50;;;21.33;;
21107;SDS011;10712;52.944;9.098;2023-01-25T05:36:06;29.10;;;21.15;;
21107;SDS011;10712;52.944;9.098;2023-01-25T05:38:35;26.52;;;19.65;;
21107;SDS011;10712;52.944;9.098;2023-01-25T05:41:01;29.80;;;19.88;;
21107;SDS011;10712;52.944;9.098;2023-01-25T05:43:27;29.20;;;20.08;;
21107;SDS011;10712;52.944;9.098;2023-01-25T05:45:53;27.98;;;19.25;;
21107;SDS011;10712;52.944;9.098;2023-01-25T05:48:19;27.88;;;18.52;;
21107;SDS011;10712;52.944;9.098;2023-01-25T05:50:45;26.65;;;18.67;;
21107;SDS011;10712;52.944;9.098;2023-01-25T05:53:23;27.13;;;17.48;;
21107;SDS011;10712;52.944;9.098;2023-01-25T05:55:51;22.58;;;16.88;;
21107;SDS011;10712;52.944;9.098;2023-01-25T05:58:17;27.25;;;18.08;;
21107;SDS011;10712;52.944;9.098;2023-01-25T06:00:42;27.83;;;19.10;;
21107;SDS011;10712;52.944;9.098;2023-01-25T06:05:40;24.25;;;16.70;;
21107;SDS011;10712;52.944;9.098;2023-01-25T06:08:06;27.65;;;18.63;;
21107;SDS011;10712;52.944;9.098;2023-01-25T06:11:07;23.90;;;18.20;;
21107;SDS011;10712;52.944;9.098;2023-01-25T06:13:42;27.50;;;18.13;;
21107;SDS011;10712;52.944;9.098;2023-01-25T06:16:09;26.48;;;16.90;;
21107;SDS011;10712;52.944;9.098;2023-01-25T06:18:41;25.05;;;17.45;;
21107;SDS011;10712;52.944;9.098;2023-01-25T06:21:16;28.88;;;18.67;;
21107;SDS011;10712;52.944;9.098;2023-01-25T06:23:42;24.02;;;16.50;;
21107;SDS011;10712;52.944;9.098;2023-01-25T06:26:09;25.85;;;17.05;;
21107;SDS011;10712;52.944;9.098;2023-01-25T06:28:38;27.40;;;18.30;;
21107;SDS011;10712;52.944;9.098;2023-01-25T06:33:39;24.00;;;17.60;;
21107;SDS011;10712;52.944;9.098;2023-01-25T06:36:10;27.75;;;18.40;;
21107;SDS011;10712;52.944;9.098;2023-01-25T06:38:39;26.65;;;18.27;;
21107;SDS011;10712;52.944;9.098;2023-01-25T06:41:06;26.33;;;17.80;;
21107;SDS011;10712;52.944;9.098;2023-01-25T06:43:35;31.52;;;19.52;;
21107;SDS011;10712;52.944;9.098;2023-01-25T06:46:02;23.80;;;17.42;;
21107;SDS011;10712;52.944;9.098;2023-01-25T06:48:31;24.50;;;16.88;;
21107;SDS011;10712;52.944;9.098;2023-01-25T06:51:02;25.70;;;17.90;;
21107;SDS011;10712;52.944;9.098;2023-01-25T06:53:33;30.27;;;18.83;;
21107;SDS011;10712;52.944;9.098;2023-01-25T06:56:07;24.20;;;17.17;;
21107;SDS011;10712;52.944;9.098;2023-01-25T06:58:51;24.45;;;17.27;;
21107;SDS011;10712;52.944;9.098;2023-01-25T07:01:18;24.30;;;16.55;;
21107;SDS011;10712;52.944;9.098;2023-01-25T07:03:52;25.42;;;18.25;;
21107;SDS011;10712;52.944;9.098;2023-01-25T07:06:20;25.88;;;18.60;;
21107;SDS011;10712;52.944;9.098;2023-01-25T07:08:47;25.02;;;16.88;;
21107;SDS011;10712;52.944;9.098;2023-01-25T07:11:14;25.30;;;17.73;;
21107;SDS011;10712;52.944;9.098;2023-01-25T07:13:43;22.80;;;17.05;;
21107;SDS011;10712;52.944;9.098;2023-01-25T07:16:11;33.35;;;21.10;;
21107;SDS011;10712;52.944;9.098;2023-01-25T07:18:43;27.92;;;20.33;;
21107;SDS011;10712;52.944;9.098;2023-01-25T07:21:19;24.92;;;17.08;;
21107;SDS011;10712;52.944;9.098;2023-01-25T07:23:48;23.40;;;16.98;;
21107;SDS011;10712;52.944;9.098;2023-01-25T07:26:17;21.95;;;15.85;;
21107;SDS011;10712;52.944;9.098;2023-01-25T07:28:48;24.80;;;16.85;;
21107;SDS011;10712;52.944;9.098;2023-01-25T07:31:16;23.23;;;16.55;;
21107;SDS011;10712;52.944;9.098;2023-01-25T07:33:47;23.60;;;17.70;;
21107;SDS011;10712;52.944;9.098;2023-01-25T07:36:18;25.27;;;18.10;;
21107;SDS011;10712;52.944;9.098;2023-01-25T07:38:44;27.75;;;18.45;;
21107;SDS011;10712;52.944;9.098;2023-01-25T07:41:10;29.10;;;19.95;;
21107;SDS011;10712;52.944;9.098;2023-01-25T07:43:37;28.95;;;19.73;;
21107;SDS011;10712;52.944;9.098;2023-01-25T07:46:04;26.65;;;18.98;;
21107;SDS011;10712;52.944;9.098;2023-01-25T07:48:37;24.77;;;18.02;;
21107;SDS011;10712;52.944;9.098;2023-01-25T07:51:06;29.52;;;19.55;;
21107;SDS011;10712;52.944;9.098;2023-01-25T07:53:36;30.10;;;20.80;;
21107;SDS011;10712;52.944;9.098;2023-01-25T07:56:03;29.58;;;19.75;;
21107;SDS011;10712;52.944;9.098;2023-01-25T07:58:29;29.60;;;20.80;;
21107;SDS011;10712;52.944;9.098;2023-01-25T08:00:55;44.40;;;29.73;;
21107;SDS011;10712;52.944;9.098;2023-01-25T08:03:21;32.33;;;22.15;;
21107;SDS011;10712;52.944;9.098;2023-01-25T08:05:47;32.83;;;20.85;;
21107;SDS011;10712;52.944;9.098;2023-01-25T08:08:13;33.25;;;21.50;;
21107;SDS011;10712;52.944;9.098;2023-01-25T08:10:39;34.85;;;24.80;;
21107;SDS011;10712;52.944;9.098;2023-01-25T08:13:05;36.10;;;25.88;;
21107;SDS011;10712;52.944;9.098;2023-01-25T08:15:31;37.30;;;26.00;;
21107;SDS011;10712;52.944;9.098;2023-01-25T08:18:00;39.15;;;25.83;;
21107;SDS011;10712;52.944;9.098;2023-01-25T08:20:26;37.15;;;25.58;;
21107;SDS011;10712;52.944;9.098;2023-01-25T08:22:52;39.72;;;26.05;;
21107;SDS011;10712;52.944;9.098;2023-01-25T08:25:17;43.85;;;26.52;;
21107;SDS011;10712;52.944;9.098;2023-01-25T08:27:43;40.80;;;26.13;;
21107;SDS011;10712;52.944;9.098;2023-01-25T08:30:09;41.25;;;27.83;;
21107;SDS011;10712;52.944;9.098;2023-01-25T08:32:37;41.95;;;26.50;;
21107;SDS011;10712;52.944;9.098;2023-01-25T08:35:03;39.55;;;26.67;;
21107;SDS011;10712;52.944;9.098;2023-01-25T08:37:29;41.33;;;26.33;;
21107;SDS011;10712;52.944;9.098;2023-01-25T08:39:55;38.22;;;26.00;;
21107;SDS011;10712;52.944;9.098;2023-01-25T08:42:22;43.20;;;27.13;;
21107;SDS011;10712;52.944;9.098;2023-01-25T08:44:48;42.53;;;27.05;;
21107;SDS011;10712;52.944;9.098;2023-01-25T08:47:14;43.08;;;27.70;;
21107;SDS011;10712;52.944;9.098;2023-01-25T08:49:40;43.65;;;26.40;;
21107;SDS011;10712;52.944;9.098;2023-01-25T08:52:05;40.92;;;27.73;;
21107;SDS011;10712;52.944;9.098;2023-01-25T08:54:31;39.35;;;27.63;;
21107;SDS011;10712;52.944;9.098;2023-01-25T08:56:57;38.38;;;26.05;;
21107;SDS011;10712;52.944;9.098;2023-01-25T08:59:24;38.70;;;25.38;;
21107;SDS011;10712;52.944;9.098;2023-01-25T09:01:50;38.55;;;24.10;;
21107;SDS011;10712;52.944;9.098;2023-01-25T09:04:16;36.58;;;24.88;;
21107;SDS011;10712;52.944;9.098;2023-01-25T09:06:43;32.35;;;21.83;;
21107;SDS011;10712;52.944;9.098;2023-01-25T09:09:10;36.08;;;24.48;;
21107;SDS011;10712;52.944;9.098;2023-01-25T09:11:37;41.22;;;26.33;;
21107;SDS011;10712;52.944;9.098;2023-01-25T09:14:04;36.45;;;23.55;;
21107;SDS011;10712;52.944;9.098;2023-01-25T09:16:30;39.28;;;23.90;;
21107;SDS011;10712;52.944;9.098;2023-01-25T09:18:57;36.58;;;23.67;;
21107;SDS011;10712;52.944;9.098;2023-01-25T09:21:26;38.33;;;23.10;;
21107;SDS011;10712;52.944;9.098;2023-01-25T09:23:53;35.28;;;21.83;;
21107;SDS011;10712;52.944;9.098;2023-01-25T09:26:19;34.10;;;21.77;;
21107;SDS011;10712;52.944;9.098;2023-01-25T09:28:46;37.58;;;24.70;;
21107;SDS011;10712;52.944;9.098;2023-01-25T09:31:15;44.65;;;29.15;;
21107;SDS011;10712;52.944;9.098;2023-01-25T09:34:01;39.60;;;25.73;;
21107;SDS011;10712;52.944;9.098;2023-01-25T09:36:26;33.42;;;22.30;;
21107;SDS011;10712;52.944;9.098;2023-01-25T09:38:52;37.25;;;22.52;;
21107;SDS011;10712;52.944;9.098;2023-01-25T09:41:27;37.85;;;22.95;;
21107;SDS011;10712;52.944;9.098;2023-01-25T09:44:08;36.45;;;24.20;;
21107;SDS011;10712;52.944;9.098;2023-01-25T09:46:55;34.65;;;21.50;;
21107;SDS011;10712;52.944;9.098;2023-01-25T09:54:59;35.20;;;21.85;;
21107;SDS011;10712;52.944;9.098;2023-01-25T09:57:30;36.85;;;21.67;;
21107;SDS011;10712;52.944;9.098;2023-01-25T10:00:10;31.40;;;20.10;;
21107;SDS011;10712;52.944;9.098;2023-01-25T10:02:58;36.58;;;21.85;;
21107;SDS011;10712;52.944;9.098;2023-01-25T10:05:42;30.67;;;17.73;;
21107;SDS011;10712;52.944;9.098;2023-01-25T10:10:59;30.70;;;20.35;;
21107;SDS011;10712;52.944;9.098;2023-01-25T10:13:43;34.42;;;21.17;;
21107;SDS011;10712;52.944;9.098;2023-01-25T10:16:11;36.35;;;22.42;;
21107;SDS011;10712;52.944;9.098;2023-01-25T10:22:03;34.53;;;22.13;;
21107;SDS011;10712;52.944;9.098;2023-01-25T10:27:43;31.58;;;19.67;;
21107;SDS011;10712;52.944;9.098;2023-01-25T10:30:29;31.50;;;20.10;;
21107;SDS011;10712;52.944;9.098;2023-01-25T10:33:23;28.75;;;19.77;;
21107;SDS011;10712;52.944;9.098;2023-01-25T10:35:54;27.40;;;19.02;;
21107;SDS011;10712;52.944;9.098;2023-01-25T10:38:29;30.90;;;19.33;;
21107;SDS011;10712;52.944;9.098;2023-01-25T10:41:16;36.33;;;19.38;;
21107;SDS011;10712;52.944;9.098;2023-01-25T10:43:52;35.93;;;22.70;;
21107;SDS011;10712;52.944;9.098;2023-01-25T10:46:38;39.83;;;22.33;;
21107;SDS011;10712;52.944;9.098;2023-01-25T10:49:14;32.97;;;20.95;;
21107;SDS011;10712;52.944;9.098;2023-01-25T10:51:50;29.27;;;18.48;;
21107;SDS011;10712;52.944;9.098;2023-01-25T10:54:16;35.22;;;22.40;;
21107;SDS011;10712;52.944;9.098;2023-01-25T10:56:42;33.60;;;20.10;;
21107;SDS011;10712;52.944;9.098;2023-01-25T11:01:46;33.10;;;20.48;;
21107;SDS011;10712;52.944;9.098;2023-01-25T11:04:21;33.88;;;20.63;;
21107;SDS011;10712;52.944;9.098;2023-01-25T11:06:59;34.33;;;20.80;;
21107;SDS011;10712;52.944;9.098;2023-01-25T11:11:55;32.17;;;20.52;;
21107;SDS011;10712;52.944;9.098;2023-01-25T11:14:37;28.65;;;18.33;;
21107;SDS011;10712;52.944;9.098;2023-01-25T11:17:04;30.70;;;18.63;;
21107;SDS011;10712;52.944;9.098;2023-01-25T11:19:44;30.60;;;18.25;;
21107;SDS011;10712;52.944;9.098;2023-01-25T11:22:20;32.45;;;20.10;;
21107;SDS011;10712;52.944;9.098;2023-01-25T11:32:30;33.20;;;19.33;;
21107;SDS011;10712;52.944;9.098;2023-01-25T11:35:00;33.15;;;20.10;;
21107;SDS011;10712;52.944;9.098;2023-01-25T11:40:36;35.63;;;21.02;;
21107;SDS011;10712;52.944;9.098;2023-01-25T11:46:40;35.88;;;19.63;;
21107;SDS011;10712;52.944;9.098;2023-01-25T11:49:50;36.88;;;19.80;;
21107;SDS011;10712;52.944;9.098;2023-01-25T11:55:45;36.72;;;20.42;;
21107;SDS011;10712;52.944;9.098;2023-01-25T11:58:34;36.88;;;21.33;;
21107;SDS011;10712;52.944;9.098;2023-01-25T12:19:26;33.83;;;19.08;;
21107;SDS011;10712;52.944;9.098;2023-01-25T12:22:14;35.10;;;19.65;;
21107;SDS011;10712;52.944;9.098;2023-01-25T12:30:58;38.28;;;21.15;;
21107;SDS011;10712;52.944;9.098;2023-01-25T12:33:38;45.20;;;23.77;;
21107;SDS011;10712;52.944;9.098;2023-01-25T12:36:13;45.50;;;25.38;;
21107;SDS011;10712;52.944;9.098;2023-01-25T12:41:37;39.10;;;23.00;;
21107;SDS011;10712;52.944;9.098;2023-01-25T12:46:48;42.92;;;22.75;;
21107;SDS011;10712;52.944;9.098;2023-01-25T12:52:40;42.55;;;23.33;;
21107;SDS011;10712;52.944;9.098;2023-01-25T12:55:45;41.70;;;22.92;;
21107;SDS011;10712;52.944;9.098;2023-01-25T12:58:34;43.95;;;23.45;;
21107;SDS011;10712;52.944;9.098;2023-01-25T13:08:06;45.05;;;23.13;;
21107;SDS011;10712;52.944;9.098;2023-01-25T13:10:49;39.05;;;20.58;;
21107;SDS011;10712;52.944;9.098;2023-01-25T13:13:30;42.30;;;21.95;;
21107;SDS011;10712;52.944;9.098;2023-01-25T13:15:57;42.88;;;23.17;;
21107;SDS011;10712;52.944;9.098;2023-01-25T13:19:00;43.83;;;23.33;;
21107;SDS011;10712;52.944;9.098;2023-01-25T13:21:42;39.25;;;22.13;;
21107;SDS011;10712;52.944;9.098;2023-01-25T13:37:21;41.47;;;22.15;;
21107;SDS011;10712;52.944;9.098;2023-01-25T13:39:59;46.50;;;23.02;;
21107;SDS011;10712;52.944;9.098;2023-01-25T13:42:44;45.75;;;23.45;;
21107;SDS011;10712;52.944;9.098;2023-01-25T13:45:49;40.85;;;22.52;;
21107;SDS011;10712;52.944;9.098;2023-01-25T13:48:18;51.50;;;26.30;;
21107;SDS011;10712;52.944;9.098;2023-01-25T13:53:20;104.85;;;44.72;;
21107;SDS011;10712;52.944;9.098;2023-01-25T14:03:28;44.05;;;25.17;;
21107;SDS011;10712;52.944;9.098;2023-01-25T14:05:58;47.40;;;25.60;;
21107;SDS011;10712;52.944;9.098;2023-01-25T14:08:26;47.53;;;25.60;;
21107;SDS011;10712;52.944;9.098;2023-01-25T14:10:54;45.63;;;23.48;;
21107;SDS011;10712;52.944;9.098;2023-01-25T14:13:22;41.50;;;24.90;;
21107;SDS011;10712;52.944;9.098;2023-01-25T14:15:54;46.35;;;23.83;;
21107;SDS011;10712;52.944;9.098;2023-01-25T14:18:35;42.33;;;22.40;;
21107;SDS011;10712;52.944;9.098;2023-01-25T14:21:08;41.40;;;22.73;;
21107;SDS011;10712;52.944;9.098;2023-01-25T14:23:45;45.25;;;23.95;;
21107;SDS011;10712;52.944;9.098;2023-01-25T14:26:19;44.88;;;24.60;;
21107;SDS011;10712;52.944;9.098;2023-01-25T14:28:54;48.78;;;25.67;;
21107;SDS011;10712;52.944;9.098;2023-01-25T14:31:23;47.97;;;25.10;;
21107;SDS011;10712;52.944;9.098;2023-01-25T14:33:53;42.13;;;21.83;;
21107;SDS011;10712;52.944;9.098;2023-01-25T14:36:28;43.90;;;23.35;;
21107;SDS011;10712;52.944;9.098;2023-01-25T14:38:57;45.15;;;24.58;;
21107;SDS011;10712;52.944;9.098;2023-01-25T14:43:56;44.58;;;23.35;;
21107;SDS011;10712;52.944;9.098;2023-01-25T14:46:30;45.60;;;25.83;;
21107;SDS011;10712;52.944;9.098;2023-01-25T14:49:31;47.78;;;25.15;;
21107;SDS011;10712;52.944;9.098;2023-01-25T15:00:18;45.28;;;26.17;;
21107;SDS011;10712;52.944;9.098;2023-01-25T15:02:54;49.08;;;28.45;;
21107;SDS011;10712;52.944;9.098;2023-01-25T15:05:43;52.10;;;28.00;;
21107;SDS011;10712;52.944;9.098;2023-01-25T15:10:49;47.22;;;27.85;;
21107;SDS011;10712;52.944;9.098;2023-01-25T15:13:23;43.67;;;27.35;;
21107;SDS011;10712;52.944;9.098;2023-01-25T15:15:52;41.28;;;26.17;;
21107;SDS011;10712;52.944;9.098;2023-01-25T15:21:11;42.63;;;24.27;;
21107;SDS011;10712;52.944;9.098;2023-01-25T15:23:41;43.50;;;25.92;;
21107;SDS011;10712;52.944;9.098;2023-01-25T15:26:19;47.63;;;27.20;;
21107;SDS011;10712;52.944;9.098;2023-01-25T15:28:48;44.35;;;26.85;;
21107;SDS011;10712;52.944;9.098;2023-01-25T15:31:27;45.47;;;26.60;;
21107;SDS011;10712;52.944;9.098;2023-01-25T15:34:00;44.88;;;26.00;;
21107;SDS011;10712;52.944;9.098;2023-01-25T15:36:31;43.60;;;26.92;;
21107;SDS011;10712;52.944;9.098;2023-01-25T15:38:57;45.17;;;24.90;;
21107;SDS011;10712;52.944;9.098;2023-01-25T15:41:23;41.05;;;24.60;;
21107;SDS011;10712;52.944;9.098;2023-01-25T15:43:49;39.08;;;24.50;;
21107;SDS011;10712;52.944;9.098;2023-01-25T15:46:34;41.20;;;23.63;;
21107;SDS011;10712;52.944;9.098;2023-01-25T15:49:04;45.38;;;26.02;;
21107;SDS011;10712;52.944;9.098;2023-01-25T15:51:32;43.17;;;25.20;;
21107;SDS011;10712;52.944;9.098;2023-01-25T15:53:58;43.97;;;26.00;;
21107;SDS011;10712;52.944;9.098;2023-01-25T15:56:28;42.00;;;25.40;;
21107;SDS011;10712;52.944;9.098;2023-01-25T15:59:04;43.65;;;25.65;;
21107;SDS011;10712;52.944;9.098;2023-01-25T16:01:33;40.17;;;25.77;;
21107;SDS011;10712;52.944;9.098;2023-01-25T16:03:59;45.45;;;28.23;;
21107;SDS011;10712;52.944;9.098;2023-01-25T16:06:38;43.55;;;27.58;;
21107;SDS011;10712;52.944;9.098;2023-01-25T16:09:26;38.50;;;24.50;;
21107;SDS011;10712;52.944;9.098;2023-01-25T16:11:59;46.58;;;27.27;;
21107;SDS011;10712;52.944;9.098;2023-01-25T16:14:27;42.58;;;26.45;;
21107;SDS011;10712;52.944;9.098;2023-01-25T16:16:56;43.05;;;25.98;;
21107;SDS011;10712;52.944;9.098;2023-01-25T16:19:26;40.88;;;25.38;;
21107;SDS011;10712;52.944;9.098;2023-01-25T16:21:53;45.15;;;27.38;;
21107;SDS011;10712;52.944;9.098;2023-01-25T16:24:19;45.20;;;27.75;;
21107;SDS011;10712;52.944;9.098;2023-01-25T16:26:58;41.80;;;26.10;;
21107;SDS011;10712;52.944;9.098;2023-01-25T16:29:25;41.85;;;25.25;;
21107;SDS011;10712;52.944;9.098;2023-01-25T16:31:52;41.28;;;25.23;;
21107;SDS011;10712;52.944;9.098;2023-01-25T16:34:18;47.13;;;30.38;;
21107;SDS011;10712;52.944;9.098;2023-01-25T16:36:45;43.20;;;26.13;;
21107;SDS011;10712;52.944;9.098;2023-01-25T16:39:21;41.60;;;25.15;;
21107;SDS011;10712;52.944;9.098;2023-01-25T16:41:49;50.38;;;28.20;;
21107;SDS011;10712;52.944;9.098;2023-01-25T16:44:15;53.60;;;31.75;;
21107;SDS011;10712;52.944;9.098;2023-01-25T16:46:42;52.25;;;29.17;;
21107;SDS011;10712;52.944;9.098;2023-01-25T16:49:09;56.70;;;32.05;;
21107;SDS011;10712;52.944;9.098;2023-01-25T16:51:43;58.50;;;34.05;;
21107;SDS011;10712;52.944;9.098;2023-01-25T16:54:13;47.25;;;28.25;;
21107;SDS011;10712;52.944;9.098;2023-01-25T16:56:39;50.08;;;29.13;;
21107;SDS011;10712;52.944;9.098;2023-01-25T16:59:05;44.63;;;28.55;;
21107;SDS011;10712;52.944;9.098;2023-01-25T17:01:33;41.58;;;26.60;;
21107;SDS011;10712;52.944;9.098;2023-01-25T17:03:59;44.65;;;27.10;;